Terminal Aerodrome Forecast
Issued by NWS

Current Version | Previous Version | Graphics & Text | Print | Product List | Glossary On
Versions: 1 2 3 4 5 6 7 8 9 10 11 12 13 14 15 16 17 18 19 20 21 22 23 24
769
FTUS41 KRLX 221501 AAB
TAFCKB
TAF AMD
KCKB 221501Z 2215/2312 29010G12KT P6SM OVC013
     FM221700 26007KT P6SM BKN050
     FM221900 26008G12KT P6SM SCT150
     FM230000 32002KT P6SM FEW150
     FM230600 00000KT 4SM BR FEW200=

USA.gov is the U.S. government's official web portal to all federal, state and local government web resources and services.